createdAt,value
2022-10-17T00:01:12.990Z,9.62
2022-10-17T00:03:41.613Z,9.47
2022-10-17T00:06:11.606Z,9.56
2022-10-17T00:08:41.396Z,9.61
2022-10-17T00:11:17.300Z,9.63
2022-10-17T00:13:45.434Z,9.66
2022-10-17T00:16:13.930Z,9.58
2022-10-17T00:18:42.072Z,9.65
2022-10-17T00:21:17.222Z,9.75
2022-10-17T00:23:45.256Z,9.72
2022-10-17T00:26:17.578Z,9.24
2022-10-17T00:28:47.733Z,9.37
2022-10-17T00:31:16.665Z,9.61
2022-10-17T00:33:44.851Z,9.58
2022-10-17T00:36:14.999Z,9.61
2022-10-17T00:38:45.042Z,9.23
2022-10-17T00:41:15.527Z,9.20
2022-10-17T00:44:00.608Z,9.28
2022-10-17T00:46:30.536Z,9.06
2022-10-17T00:49:01.392Z,9.06
2022-10-17T00:51:34.938Z,8.80
2022-10-17T00:54:05.247Z,8.91
2022-10-17T00:56:33.947Z,9.03
2022-10-17T01:01:32.334Z,9.18
2022-10-17T01:04:06.559Z,9.23
2022-10-17T01:06:34.897Z,9.26
2022-10-17T01:09:03.051Z,9.20
2022-10-17T01:11:39.141Z,9.06
2022-10-17T01:14:14.042Z,8.96
2022-10-17T01:16:49.123Z,9.03
2022-10-17T01:19:36.969Z,8.93
2022-10-17T01:22:09.127Z,8.89
2022-10-17T01:24:53.546Z,8.96
2022-10-17T01:27:49.958Z,9.03
2022-10-17T01:30:57.564Z,8.79
2022-10-17T01:33:41.316Z,8.59
2022-10-17T01:36:13.572Z,8.52
2022-10-17T01:38:47.641Z,8.76
2022-10-17T01:41:25.612Z,8.77
2022-10-17T01:44:00.208Z,8.66
2022-10-17T01:46:35.590Z,8.48
2022-10-17T01:49:05.757Z,8.55
2022-10-17T01:51:38.717Z,8.63
2022-10-17T01:54:13.205Z,8.77
2022-10-17T01:56:43.859Z,8.82
2022-10-17T01:59:15.749Z,8.70
2022-10-17T02:01:53.792Z,8.56
2022-10-17T02:04:23.570Z,8.46
2022-10-17T02:06:51.598Z,8.53
2022-10-17T02:09:21.737Z,8.51
2022-10-17T02:12:05.263Z,8.34
2022-10-17T02:14:44.112Z,8.53
2022-10-17T02:17:26.029Z,8.51
2022-10-17T02:20:03.947Z,8.49
2022-10-17T02:22:41.137Z,8.59
2022-10-17T02:25:15.602Z,8.68
2022-10-17T02:27:53.818Z,8.65
2022-10-17T02:30:31.106Z,8.61
2022-10-17T02:33:03.971Z,8.73
2022-10-17T02:35:35.967Z,8.75
2022-10-17T02:38:06.601Z,8.83
2022-10-17T02:40:35.890Z,8.84
2022-10-17T02:43:04.062Z,8.82
2022-10-17T02:45:36.186Z,8.75
2022-10-17T02:48:13.381Z,8.61
2022-10-17T02:50:50.657Z,8.59
2022-10-17T02:53:24.216Z,7.89
2022-10-17T02:56:00.053Z,8.03
2022-10-17T02:58:34.231Z,7.72
2022-10-17T03:01:03.375Z,8.00
2022-10-17T03:03:34.170Z,7.94
2022-10-17T03:06:03.177Z,8.01
2022-10-17T03:08:31.626Z,7.93
2022-10-17T03:11:01.825Z,7.61
2022-10-17T03:13:33.024Z,7.70
2022-10-17T03:16:03.352Z,7.72
2022-10-17T03:18:32.897Z,7.84
2022-10-17T03:21:02.545Z,7.89
2022-10-17T03:23:30.922Z,7.96
2022-10-17T03:25:59.552Z,7.91
2022-10-17T03:28:28.183Z,8.07
2022-10-17T03:30:56.549Z,8.13
2022-10-17T03:33:24.578Z,8.10
2022-10-17T03:35:54.120Z,8.15
2022-10-17T03:38:22.479Z,8.11
2022-10-17T03:40:56.254Z,8.01
2022-10-17T03:43:24.541Z,8.07
2022-10-17T03:45:52.842Z,8.07
2022-10-17T03:48:21.124Z,8.05
2022-10-17T03:50:49.434Z,8.08
2022-10-17T03:53:19.015Z,8.00
2022-10-17T03:55:47.266Z,7.89
2022-10-17T03:58:15.281Z,7.80
2022-10-17T04:00:43.634Z,7.69
2022-10-17T04:03:16.284Z,7.61
2022-10-17T04:05:45.902Z,7.54
2022-10-17T04:08:13.999Z,7.56
2022-10-17T04:11:08.082Z,7.63
2022-10-17T04:13:43.174Z,7.72
2022-10-17T04:16:14.110Z,7.72
2022-10-17T04:18:55.166Z,7.41
2022-10-17T04:21:26.577Z,7.46
2022-10-17T04:23:55.995Z,7.28
2022-10-17T04:26:41.387Z,7.12
2022-10-17T04:29:09.446Z,7.25
2022-10-17T04:31:37.440Z,7.34
2022-10-17T04:34:14.559Z,7.59
2022-10-17T04:36:42.616Z,7.61
2022-10-17T04:39:11.370Z,7.62
2022-10-17T04:41:41.740Z,7.59
2022-10-17T04:44:11.799Z,7.65
2022-10-17T04:46:43.906Z,7.65
2022-10-17T04:49:12.036Z,7.56
2022-10-17T04:51:44.198Z,7.42
2022-10-17T04:54:37.284Z,7.48
2022-10-17T04:57:12.023Z,7.63
2022-10-17T04:59:41.913Z,7.76
2022-10-17T05:02:19.658Z,7.82
2022-10-17T05:04:48.573Z,7.66
2022-10-17T05:07:17.716Z,7.36
2022-10-17T05:10:01.536Z,7.51
2022-10-17T05:12:32.173Z,7.07
2022-10-17T05:15:00.620Z,7.34
2022-10-17T05:17:29.962Z,7.27
2022-10-17T05:19:57.928Z,7.07
2022-10-17T05:22:26.491Z,7.24
2022-10-17T05:24:56.351Z,7.15
2022-10-17T05:27:25.395Z,7.38
2022-10-17T05:29:55.058Z,7.42
2022-10-17T05:32:29.269Z,7.44
2022-10-17T05:34:57.779Z,7.63
2022-10-17T05:37:27.158Z,7.66
2022-10-17T05:39:57.584Z,7.83
2022-10-17T05:42:26.856Z,7.89
2022-10-17T05:44:56.733Z,7.89
2022-10-17T05:47:24.855Z,7.96
2022-10-17T05:49:53.092Z,8.08
2022-10-17T05:52:38.961Z,8.25
2022-10-17T05:55:11.761Z,8.40
2022-10-17T05:57:40.867Z,8.48
2022-10-17T06:00:18.643Z,8.58
2022-10-17T06:02:54.470Z,8.61
2022-10-17T06:05:24.063Z,8.65
2022-10-17T06:07:55.085Z,8.87
2022-10-17T06:10:26.493Z,8.97
2022-10-17T06:12:56.757Z,9.11
2022-10-17T06:15:26.365Z,9.24
2022-10-17T06:18:01.885Z,9.31
2022-10-17T06:20:29.904Z,9.39
2022-10-17T06:22:58.350Z,9.44
2022-10-17T06:26:00.818Z,9.56
2022-10-17T06:28:30.432Z,9.87
2022-10-17T06:31:00.716Z,9.96
2022-10-17T06:33:29.435Z,10.04
2022-10-17T06:35:58.229Z,10.23
2022-10-17T06:38:27.457Z,10.41
2022-10-17T06:41:04.970Z,10.48
2022-10-17T06:43:33.459Z,10.64
2022-10-17T06:46:29.914Z,10.71
2022-10-17T06:49:10.947Z,10.76
2022-10-17T06:51:50.136Z,10.98
2022-10-17T06:54:21.685Z,11.12
2022-10-17T06:57:28.871Z,11.31
2022-10-17T07:00:23.482Z,11.38
2022-10-17T07:02:56.670Z,11.41
2022-10-17T07:05:25.009Z,11.26
2022-10-17T07:07:53.446Z,11.47
2022-10-17T07:10:21.585Z,11.47
2022-10-17T07:12:49.637Z,11.55
2022-10-17T07:15:19.074Z,11.82
2022-10-17T07:17:50.390Z,11.92
2022-10-17T07:20:21.175Z,12.22
2022-10-17T07:22:49.458Z,12.30
2022-10-17T07:25:17.517Z,12.34
2022-10-17T07:27:52.848Z,12.47
2022-10-17T07:30:25.130Z,12.53
2022-10-17T07:33:07.570Z,12.88
2022-10-17T07:35:40.818Z,13.25
2022-10-17T07:38:09.297Z,13.63
2022-10-17T07:40:37.715Z,13.81
2022-10-17T07:43:05.981Z,14.00
2022-10-17T07:45:34.240Z,14.22
2022-10-17T07:48:02.971Z,14.32
2022-10-17T07:50:33.592Z,14.46
2022-10-17T07:53:02.994Z,14.62
2022-10-17T07:55:31.248Z,14.70
2022-10-17T07:58:00.607Z,14.66
2022-10-17T08:00:28.898Z,14.87
2022-10-17T08:02:56.959Z,14.94
2022-10-17T08:05:24.934Z,15.07
2022-10-17T08:07:52.995Z,15.18
2022-10-17T08:10:27.780Z,15.27
2022-10-17T08:12:56.304Z,15.50
2022-10-17T08:15:27.965Z,15.63
2022-10-17T08:18:02.048Z,15.65
2022-10-17T08:20:30.117Z,15.70
2022-10-17T08:22:58.549Z,15.94
2022-10-17T08:25:28.325Z,16.04
2022-10-17T08:27:56.379Z,16.25
2022-10-17T08:30:24.915Z,16.38
2022-10-17T08:32:53.065Z,16.24
2022-10-17T08:35:22.196Z,16.36
2022-10-17T08:37:50.239Z,16.55
2022-10-17T08:40:23.007Z,16.72
2022-10-17T08:43:05.426Z,16.77
2022-10-17T08:45:37.287Z,17.04
2022-10-17T08:48:09.895Z,17.18
2022-10-17T08:50:42.897Z,17.38
2022-10-17T08:53:19.010Z,17.61
2022-10-17T08:55:48.947Z,17.64
2022-10-17T08:58:22.341Z,17.83
2022-10-17T09:01:00.346Z,17.90
2022-10-17T09:03:39.723Z,18.24
2022-10-17T09:06:19.105Z,18.26
2022-10-17T09:08:56.888Z,18.37
2022-10-17T09:11:41.952Z,18.61
2022-10-17T09:14:27.501Z,18.71
2022-10-17T09:17:05.493Z,18.72
2022-10-17T09:19:36.893Z,18.69
2022-10-17T09:22:10.395Z,18.95
2022-10-17T09:24:44.324Z,19.06
2022-10-17T09:27:24.157Z,19.22
2022-10-17T09:29:56.329Z,19.33
2022-10-17T09:32:26.953Z,19.49
2022-10-17T09:34:57.352Z,19.58
2022-10-17T09:37:34.110Z,19.78
2022-10-17T09:40:02.387Z,19.84
2022-10-17T09:42:31.860Z,19.82
2022-10-17T09:45:15.466Z,19.79
2022-10-17T09:50:29.627Z,19.91
2022-10-17T09:53:01.791Z,20.08
2022-10-17T09:55:38.834Z,20.22
2022-10-17T09:58:09.057Z,20.22
2022-10-17T10:00:41.228Z,20.29
2022-10-17T10:03:16.978Z,20.40
2022-10-17T10:06:00.483Z,20.39
2022-10-17T10:08:31.246Z,20.51
2022-10-17T10:11:03.507Z,20.57
2022-10-17T10:13:32.613Z,20.57
2022-10-17T10:16:21.057Z,20.63
2022-10-17T10:18:51.166Z,20.78
2022-10-17T10:21:22.024Z,20.76
2022-10-17T10:24:07.219Z,20.94
2022-10-17T10:26:39.698Z,21.31
2022-10-17T10:29:22.580Z,21.28
2022-10-17T10:31:54.464Z,21.28
2022-10-17T10:34:25.946Z,21.39
2022-10-17T10:36:58.463Z,21.42
2022-10-17T10:39:35.936Z,21.36
2022-10-17T10:42:07.189Z,21.38
2022-10-17T10:44:37.361Z,21.53
2022-10-17T10:47:17.738Z,21.43
2022-10-17T10:49:46.315Z,21.39
2022-10-17T10:52:23.640Z,21.59
2022-10-17T10:55:00.383Z,21.63
2022-10-17T10:57:32.078Z,21.67
2022-10-17T11:00:07.518Z,21.62
2022-10-17T11:02:46.187Z,21.46
2022-10-17T11:05:19.388Z,21.80
2022-10-17T11:07:56.156Z,21.71
2022-10-17T11:10:31.599Z,22.11
2022-10-17T11:13:01.565Z,21.96
2022-10-17T11:15:36.653Z,21.97
2022-10-17T11:18:08.764Z,21.83
2022-10-17T11:20:51.663Z,21.88
2022-10-17T11:23:25.910Z,21.86
2022-10-17T11:25:55.758Z,21.62
2022-10-17T11:28:25.819Z,21.91
2022-10-17T11:30:58.981Z,21.88
2022-10-17T11:33:31.723Z,21.71
2022-10-17T11:36:05.289Z,21.73
2022-10-17T11:38:41.845Z,21.83
2022-10-17T11:41:17.368Z,21.31
2022-10-17T11:43:49.741Z,21.67
2022-10-17T11:46:23.857Z,21.60
2022-10-17T11:49:15.050Z,21.93
2022-10-17T11:52:00.890Z,22.02
2022-10-17T11:54:35.152Z,22.07
2022-10-17T11:57:16.689Z,22.12
2022-10-17T12:00:00.039Z,22.31
2022-10-17T12:02:39.182Z,22.22
2022-10-17T12:05:20.154Z,22.15
2022-10-17T12:07:54.218Z,22.08
2022-10-17T12:10:31.948Z,22.18
2022-10-17T12:13:41.739Z,22.25
2022-10-17T12:16:49.567Z,22.38
2022-10-17T12:19:38.854Z,22.49
2022-10-17T12:22:21.161Z,22.32
2022-10-17T12:24:58.659Z,22.07
2022-10-17T12:27:43.516Z,21.98
2022-10-17T12:30:23.835Z,22.14
2022-10-17T12:33:08.039Z,22.25
2022-10-17T12:35:38.374Z,22.14
2022-10-17T12:38:22.377Z,22.00
2022-10-17T12:41:05.223Z,22.14
2022-10-17T12:43:57.406Z,22.05
2022-10-17T12:46:48.050Z,22.05
2022-10-17T12:49:51.112Z,21.86
2022-10-17T12:52:24.405Z,21.86
2022-10-17T12:55:11.521Z,22.11
2022-10-17T12:57:45.712Z,22.09
2022-10-17T13:00:21.160Z,21.86
2022-10-17T13:02:49.576Z,22.18
2022-10-17T13:05:22.665Z,22.24
2022-10-17T13:07:56.485Z,22.31
2022-10-17T13:13:03.834Z,22.41
2022-10-17T13:15:32.329Z,22.51
2022-10-17T13:18:02.499Z,22.65
2022-10-17T13:20:32.566Z,22.79
2022-10-17T13:23:01.155Z,22.73
2022-10-17T13:25:30.877Z,22.76
2022-10-17T13:28:12.139Z,22.67
2022-10-17T13:30:40.298Z,22.76
2022-10-17T13:33:28.292Z,22.72
2022-10-17T13:36:00.422Z,22.67
2022-10-17T13:38:32.365Z,22.60
2022-10-17T13:41:30.178Z,22.60
2022-10-17T13:43:52.208Z,22.59
2022-10-17T13:46:37.313Z,22.67
2022-10-17T13:49:19.215Z,22.41
2022-10-17T13:51:49.776Z,22.18
2022-10-17T13:54:35.481Z,22.14
2022-10-17T13:57:08.658Z,22.21
2022-10-17T13:59:41.102Z,22.24
2022-10-17T14:02:16.574Z,22.15
2022-10-17T14:05:14.999Z,21.91
2022-10-17T14:08:05.624Z,22.00
2022-10-17T14:10:31.826Z,22.01
2022-10-17T14:13:02.100Z,21.86
2022-10-17T14:15:32.250Z,21.94
2022-10-17T14:18:06.723Z,22.00
2022-10-17T14:23:36.652Z,21.81
2022-10-17T14:26:12.870Z,21.69
2022-10-17T14:28:44.537Z,21.53
2022-10-17T14:31:31.257Z,21.59
2022-10-17T14:34:01.044Z,21.56
2022-10-17T14:36:38.816Z,21.38
2022-10-17T14:39:14.086Z,21.21
2022-10-17T14:41:46.594Z,21.18
2022-10-17T14:44:23.986Z,20.98
2022-10-17T14:46:55.752Z,20.80
2022-10-17T14:49:29.279Z,20.66
2022-10-17T14:52:24.889Z,20.51
2022-10-17T14:54:53.166Z,20.37
2022-10-17T14:57:25.048Z,20.15
2022-10-17T14:59:59.111Z,19.98
2022-10-17T15:02:29.399Z,19.85
2022-10-17T15:04:57.887Z,19.77
2022-10-17T15:07:26.431Z,19.68
2022-10-17T15:09:54.878Z,19.53
2022-10-17T15:12:25.890Z,19.41
2022-10-17T15:14:56.405Z,19.27
2022-10-17T15:17:29.761Z,19.19
2022-10-17T15:19:58.945Z,19.05
2022-10-17T15:22:27.888Z,18.95
2022-10-17T15:24:58.118Z,18.82
2022-10-17T15:27:27.813Z,18.72
2022-10-17T15:29:56.071Z,18.69
2022-10-17T15:32:24.083Z,18.60
2022-10-17T15:34:53.650Z,18.54
2022-10-17T15:37:23.092Z,18.38
2022-10-17T15:39:54.627Z,18.30
2022-10-17T15:42:24.005Z,18.18
2022-10-17T15:44:52.089Z,18.17
2022-10-17T15:47:25.510Z,18.14
2022-10-17T15:49:55.516Z,18.13
2022-10-17T15:52:24.053Z,18.16
2022-10-17T15:54:52.628Z,18.20
2022-10-17T15:57:23.890Z,18.23
2022-10-17T15:59:52.774Z,18.30
2022-10-17T16:02:22.681Z,18.36
2022-10-17T16:04:52.128Z,18.38
2022-10-17T16:07:22.054Z,18.38
2022-10-17T16:09:50.059Z,18.14
2022-10-17T16:12:20.019Z,17.83
2022-10-17T16:14:48.772Z,17.68
2022-10-17T16:17:18.487Z,17.65
2022-10-17T16:19:48.696Z,17.37
2022-10-17T16:22:28.811Z,17.10
2022-10-17T16:24:59.396Z,16.51
2022-10-17T16:27:27.757Z,15.91
2022-10-17T16:29:55.717Z,15.59
2022-10-17T16:32:23.815Z,15.39
2022-10-17T16:34:51.923Z,15.42
2022-10-17T16:37:21.365Z,15.36
2022-10-17T16:39:52.675Z,15.31
2022-10-17T16:42:21.286Z,15.38
2022-10-17T16:44:49.956Z,15.39
2022-10-17T16:47:19.230Z,15.27
2022-10-17T16:49:47.507Z,14.84
2022-10-17T16:52:15.558Z,14.83
2022-10-17T16:54:45.006Z,15.08
2022-10-17T16:57:13.085Z,14.85
2022-10-17T16:59:41.919Z,14.47
2022-10-17T17:02:12.093Z,14.12
2022-10-17T17:04:40.652Z,13.87
2022-10-17T17:07:08.843Z,14.17
2022-10-17T17:09:36.985Z,14.15
2022-10-17T17:12:07.031Z,14.12
2022-10-17T17:14:35.140Z,14.17
2022-10-17T17:17:03.286Z,14.01
2022-10-17T17:19:31.498Z,13.84
2022-10-17T17:21:59.592Z,13.88
2022-10-17T17:24:28.305Z,13.71
2022-10-17T17:26:57.567Z,13.71
2022-10-17T17:29:27.609Z,13.75
2022-10-17T17:31:55.764Z,13.64
2022-10-17T17:34:23.955Z,13.80
2022-10-17T17:36:52.020Z,13.60
2022-10-17T17:39:20.193Z,13.75
2022-10-17T17:41:48.318Z,13.50
2022-10-17T17:44:17.287Z,13.47
2022-10-17T17:46:48.017Z,13.44
2022-10-17T17:49:16.029Z,13.32
2022-10-17T17:51:46.656Z,13.19
2022-10-17T17:54:15.605Z,12.94
2022-10-17T17:56:43.871Z,13.04
2022-10-17T17:59:14.487Z,12.98
2022-10-17T18:01:42.730Z,12.85
2022-10-17T18:04:12.952Z,12.96
2022-10-17T18:06:41.355Z,13.08
2022-10-17T18:09:10.680Z,13.16
2022-10-17T18:11:39.520Z,13.13
2022-10-17T18:14:11.517Z,12.74
2022-10-17T18:16:39.837Z,12.83
2022-10-17T18:19:09.759Z,12.36
2022-10-17T18:21:39.531Z,12.28
2022-10-17T18:24:08.351Z,12.32
2022-10-17T18:26:37.060Z,12.36
2022-10-17T18:29:05.617Z,12.48
2022-10-17T18:31:35.961Z,12.44
2022-10-17T18:34:05.601Z,12.58
2022-10-17T18:36:35.335Z,12.64
2022-10-17T18:39:06.038Z,12.87
2022-10-17T18:41:34.851Z,12.77
2022-10-17T18:44:04.056Z,12.69
2022-10-17T18:46:42.700Z,12.74
2022-10-17T18:49:12.094Z,12.78
2022-10-17T18:51:42.224Z,12.23
2022-10-17T18:54:20.307Z,12.18
2022-10-17T18:56:50.453Z,12.19
2022-10-17T18:59:21.494Z,11.88
2022-10-17T19:01:49.870Z,11.99
2022-10-17T19:04:22.308Z,11.72
2022-10-17T19:06:50.471Z,11.61
2022-10-17T19:09:20.136Z,11.74
2022-10-17T19:11:48.349Z,11.43
2022-10-17T19:14:16.889Z,11.57
2022-10-17T19:16:47.649Z,11.65
2022-10-17T19:19:17.590Z,11.45
2022-10-17T19:21:46.049Z,11.61
2022-10-17T19:24:15.762Z,11.61
2022-10-17T19:26:46.768Z,11.65
2022-10-17T19:29:16.605Z,11.75
2022-10-17T19:31:45.635Z,11.68
2022-10-17T19:34:15.280Z,11.79
2022-10-17T19:36:44.273Z,11.86
2022-10-17T19:39:14.657Z,11.81
2022-10-17T19:41:44.254Z,11.95
2022-10-17T19:44:14.766Z,12.09
2022-10-17T19:46:44.496Z,12.18
2022-10-17T19:49:13.400Z,11.83
2022-10-17T19:51:41.902Z,11.86
2022-10-17T19:54:11.426Z,11.68
2022-10-17T19:56:40.465Z,11.54
2022-10-17T19:59:09.190Z,11.78
2022-10-17T20:01:40.140Z,11.64
2022-10-17T20:04:10.840Z,11.51
2022-10-17T20:06:40.777Z,11.47
2022-10-17T20:09:12.372Z,11.45
2022-10-17T20:11:46.381Z,11.55
2022-10-17T20:14:15.045Z,11.27
2022-10-17T20:16:50.676Z,11.06
2022-10-17T20:19:18.879Z,10.89
2022-10-17T20:21:46.872Z,10.79
2022-10-17T20:24:17.282Z,11.03
2022-10-17T20:26:45.869Z,10.95
2022-10-17T20:29:16.655Z,10.91
2022-10-17T20:31:47.106Z,10.69
2022-10-17T20:34:18.286Z,10.95
2022-10-17T20:36:47.026Z,11.07
2022-10-17T20:39:18.204Z,11.09
2022-10-17T20:41:48.535Z,10.96
2022-10-17T20:44:17.105Z,10.96
2022-10-17T20:47:00.798Z,10.98
2022-10-17T20:49:30.910Z,10.72
2022-10-17T20:52:03.346Z,10.61
2022-10-17T20:54:31.607Z,10.69
2022-10-17T20:57:03.917Z,10.67
2022-10-17T20:59:34.999Z,10.73
2022-10-17T21:02:06.728Z,10.85
2022-10-17T21:04:50.712Z,10.48
2022-10-17T21:07:19.259Z,10.13
2022-10-17T21:09:47.428Z,9.89
2022-10-17T21:12:25.802Z,9.96
2022-10-17T21:15:05.068Z,10.07
2022-10-17T21:17:35.171Z,10.10
2022-10-17T21:20:03.251Z,9.96
2022-10-17T21:22:32.221Z,10.00
2022-10-17T21:25:01.334Z,9.99
2022-10-17T21:27:30.255Z,9.96
2022-10-17T21:29:58.588Z,9.82
2022-10-17T21:32:47.281Z,9.83
2022-10-17T21:35:16.568Z,9.68
2022-10-17T21:37:44.593Z,9.68
2022-10-17T21:40:13.900Z,9.58
2022-10-17T21:42:41.917Z,9.81
2022-10-17T21:45:15.570Z,9.93
2022-10-17T21:48:11.322Z,10.07
2022-10-17T21:50:39.610Z,10.02
2022-10-17T21:53:07.638Z,9.97
2022-10-17T21:55:37.211Z,9.82
2022-10-17T21:58:05.608Z,9.89
2022-10-17T22:00:33.661Z,9.86
2022-10-17T22:03:02.145Z,9.92
2022-10-17T22:05:31.999Z,9.47
2022-10-17T22:08:01.695Z,9.26
2022-10-17T22:10:29.680Z,9.16
2022-10-17T22:12:57.672Z,9.37
2022-10-17T22:15:25.704Z,9.44
2022-10-17T22:17:53.780Z,9.24
2022-10-17T22:20:21.874Z,9.41
2022-10-17T22:22:49.936Z,9.52
2022-10-17T22:25:19.364Z,9.61
2022-10-17T22:27:48.353Z,9.55
2022-10-17T22:30:16.613Z,9.68
2022-10-17T22:32:44.647Z,9.68
2022-10-17T22:35:12.625Z,9.58
2022-10-17T22:37:40.647Z,9.68
2022-10-17T22:40:09.462Z,9.75
2022-10-17T22:42:38.826Z,9.17
2022-10-17T22:45:07.414Z,9.42
2022-10-17T22:47:35.394Z,9.58
2022-10-17T22:50:03.693Z,9.66
2022-10-17T22:52:31.935Z,9.76
2022-10-17T22:55:00.042Z,9.83
2022-10-17T22:57:28.034Z,9.75
2022-10-17T22:59:57.567Z,9.69
2022-10-17T23:02:25.663Z,9.58
2022-10-17T23:04:53.672Z,9.59
2022-10-17T23:07:21.699Z,9.63
2022-10-17T23:09:49.725Z,9.78
2022-10-17T23:12:17.803Z,9.81
2022-10-17T23:14:45.928Z,9.69
2022-10-17T23:17:17.552Z,9.39
2022-10-17T23:19:45.528Z,9.38
2022-10-17T23:22:13.568Z,9.20
2022-10-17T23:24:41.651Z,9.23
2022-10-17T23:27:09.634Z,9.35
2022-10-17T23:29:37.616Z,9.23
2022-10-17T23:32:06.028Z,9.38
2022-10-17T23:34:35.373Z,9.32
2022-10-17T23:37:03.322Z,8.91
2022-10-17T23:39:31.342Z,9.16
2022-10-17T23:41:59.358Z,9.08
2022-10-17T23:44:27.424Z,9.20
2022-10-17T23:46:55.693Z,9.18
2022-10-17T23:49:23.669Z,9.14
2022-10-17T23:51:53.003Z,9.13
2022-10-17T23:54:21.314Z,9.03
2022-10-17T23:56:49.274Z,8.79
2022-10-17T23:59:17.442Z,8.66
